YRNW weather

Ringwood Airport
Northern Territory, Australia

Public forecast

Using degrees Celsius for public forecast. Weather courtesy of forecast.io.

Closest aviation weather report (METAR) to Ringwood Airport

Closest report is Alice Springs Airport, 58.2 nm (107.9 km) W. Retrieved 2020/02/27 00:00 UTC (29 minutes ago):

YBAS 270000Z 09015KT CAVOK 32/07 Q1014

Closest aviation forecast (TAF) to Ringwood Airport

Closest forecast is Alice Springs Airport, 58.2 nm (107.9 km) W. Retrieved 2020-02-27 00:00 UTC (29 minutes ago):

TAF YBAS 262314Z 2700/2800 12012KT CAVOK FM271000 13008KT CAVOK